Time;durP1;ratioP1;P1;durP2;ratioP2;P2;SDS_P1;SDS_P2;PMS_P1;PMS_P2;Temp;Humidity;BMP_temperature;BMP_pressure;BME280_temperature;BME280_humidity;BME280_pressure;Samples;Min_cycle;Max_cycle;Signal;HPM_P1;HPM_P2
2022/04/14 00:00:20;;;;;;;19.85;10.50;;;10.90;99.90;;;;;;4996877;28;20050;-73
2022/04/14 00:02:46;;;;;;;20.90;10.82;;;10.40;99.90;;;;;;4997892;28;20041;-72
2022/04/14 00:05:12;;;;;;;20.73;10.27;;;10.80;99.90;;;;;;4993411;28;20050;-73
2022/04/14 00:07:39;;;;;;;20.45;10.63;;;10.80;99.90;;;;;;5010486;28;20069;-74
2022/04/14 00:10:06;;;;;;;17.77;10.00;;;10.80;99.90;;;;;;5010360;28;20057;-73
2022/04/14 00:12:31;;;;;;;21.40;10.65;;;10.80;99.90;;;;;;5015058;28;20128;-72
2022/04/14 00:14:58;;;;;;;22.70;11.35;;;10.80;99.90;;;;;;5011011;28;20149;-74
2022/04/14 00:17:24;;;;;;;20.20;10.73;;;10.80;99.90;;;;;;5009922;28;20106;-73
2022/04/14 00:19:50;;;;;;;21.45;12.05;;;10.70;99.90;;;;;;5010013;28;20535;-73
2022/04/14 00:22:16;;;;;;;20.02;10.90;;;10.70;99.90;;;;;;4994846;28;20072;-73
2022/04/14 00:24:42;;;;;;;19.60;10.45;;;10.60;99.90;;;;;;5010995;28;20169;-73
2022/04/14 00:27:08;;;;;;;19.08;10.52;;;10.60;99.90;;;;;;4995528;28;20057;-73
2022/04/14 00:29:35;;;;;;;23.73;11.02;;;10.60;99.90;;;;;;5008523;28;20049;-73
2022/04/14 00:32:01;;;;;;;19.50;10.30;;;10.50;99.90;;;;;;4993591;28;20041;-73
2022/04/14 00:34:27;;;;;;;22.20;10.38;;;10.50;99.90;;;;;;5012973;28;20054;-73
2022/04/14 00:36:53;;;;;;;22.92;11.43;;;10.50;99.90;;;;;;5014522;28;20045;-72
2022/04/14 00:39:19;;;;;;;23.50;11.55;;;10.50;99.90;;;;;;5011598;28;20045;-73
2022/04/14 00:41:45;;;;;;;19.08;9.80;;;10.50;99.90;;;;;;5011292;28;20058;-73
2022/04/14 00:44:11;;;;;;;18.48;10.20;;;10.40;99.90;;;;;;5011562;28;20042;-73
2022/04/14 00:46:37;;;;;;;23.85;10.30;;;10.50;99.90;;;;;;5011002;28;20057;-72
2022/04/14 00:49:03;;;;;;;18.67;10.02;;;10.50;99.90;;;;;;5011463;28;20099;-73
2022/04/14 00:51:30;;;;;;;19.23;10.43;;;10.50;99.90;;;;;;5017295;28;20041;-73
2022/04/14 00:53:56;;;;;;;22.13;10.32;;;10.50;99.90;;;;;;5006618;28;20096;-73
2022/04/14 00:56:22;;;;;;;22.52;10.10;;;10.50;99.90;;;;;;4994362;28;20050;-74
2022/04/14 00:58:49;;;;;;;20.95;9.82;;;10.50;99.90;;;;;;5010954;28;20454;-73
2022/04/14 01:01:15;;;;;;;19.10;9.68;;;10.60;99.90;;;;;;5010547;28;20116;-73
2022/04/14 01:03:45;;;;;;;19.60;9.23;;;10.70;99.90;;;;;;5010206;28;20050;-75
2022/04/14 01:06:15;;;;;;;20.90;9.70;;;10.70;99.90;;;;;;5010407;28;20057;-71
2022/04/14 01:09:16;;;;;;;17.88;9.30;;;10.60;99.90;;;;;;5010641;28;20046;-73
2022/04/14 01:11:29;;;;;;;17.15;9.52;;;10.60;99.90;;;;;;5009744;28;20125;-73
2022/04/14 01:13:55;;;;;;;22.63;9.95;;;10.60;99.90;;;;;;4994219;28;20038;-73
2022/04/14 01:16:21;;;;;;;16.33;9.52;;;10.70;99.90;;;;;;5011894;28;20111;-73
2022/04/14 01:18:47;;;;;;;18.65;9.35;;;10.70;99.90;;;;;;5000974;28;20056;-73
2022/04/14 01:21:13;;;;;;;18.98;9.75;;;10.60;99.90;;;;;;5010477;28;20074;-73
2022/04/14 01:23:42;;;;;;;19.83;10.13;;;10.60;99.90;;;;;;5010376;28;20112;-74
2022/04/14 01:26:08;;;;;;;15.40;9.60;;;10.70;99.90;;;;;;5009728;28;20049;-74
2022/04/14 01:28:35;;;;;;;19.00;9.88;;;10.80;99.90;;;;;;4977865;28;20072;-73
2022/04/14 01:31:01;;;;;;;19.08;9.70;;;10.80;99.90;;;;;;4994364;28;20049;-73
2022/04/14 01:33:27;;;;;;;16.48;9.77;;;10.80;99.90;;;;;;5009875;28;20041;-75
2022/04/14 01:35:53;;;;;;;24.33;10.48;;;10.80;99.90;;;;;;5011104;28;20413;-73
2022/04/14 01:38:19;;;;;;;18.90;9.75;;;10.80;99.90;;;;;;5010018;28;20050;-73
2022/04/14 01:40:46;;;;;;;19.67;10.18;;;10.80;99.90;;;;;;4977406;28;20054;-73
2022/04/14 01:43:12;;;;;;;20.02;10.45;;;10.80;99.90;;;;;;5009932;28;20069;-73
2022/04/14 01:45:38;;;;;;;20.63;10.60;;;10.80;99.90;;;;;;5009832;28;20491;-73
2022/04/14 01:48:05;;;;;;;18.38;10.82;;;10.80;99.90;;;;;;5010731;28;20115;-73
2022/04/14 01:50:31;;;;;;;20.80;10.95;;;10.80;99.90;;;;;;5011166;28;20459;-73
2022/04/14 01:52:57;;;;;;;21.58;11.25;;;10.70;99.90;;;;;;5010181;28;20057;-73
2022/04/14 01:55:23;;;;;;;20.80;11.50;;;10.70;99.90;;;;;;5016345;28;20046;-73
2022/04/14 01:57:49;;;;;;;20.50;11.18;;;10.70;99.90;;;;;;5010211;28;20376;-74
2022/04/14 02:00:16;;;;;;;22.67;11.32;;;10.60;99.90;;;;;;5010583;28;20061;-73
2022/04/14 02:02:42;;;;;;;24.27;11.27;;;10.70;99.90;;;;;;4994861;28;20459;-73
2022/04/14 02:05:08;;;;;;;23.10;11.68;;;10.60;99.90;;;;;;5011026;28;20053;-73
2022/04/14 02:07:35;;;;;;;21.80;11.73;;;10.60;99.90;;;;;;4995598;28;20050;-72
2022/04/14 02:10:01;;;;;;;25.95;12.45;;;10.60;99.90;;;;;;5012985;28;20056;-73
2022/04/14 02:12:27;;;;;;;25.38;14.10;;;10.50;99.90;;;;;;4999929;28;20517;-73
2022/04/14 02:14:53;;;;;;;26.33;13.43;;;10.50;99.90;;;;;;4997361;28;20045;-73
2022/04/14 02:17:19;;;;;;;24.85;14.00;;;10.60;99.90;;;;;;5000519;28;20052;-73
2022/04/14 02:19:47;;;;;;;22.13;13.48;;;10.50;99.90;;;;;;4997241;28;20045;-74
2022/04/14 02:22:13;;;;;;;26.02;14.32;;;10.50;99.90;;;;;;4999398;28;20054;-73
2022/04/14 02:24:39;;;;;;;25.77;14.27;;;10.50;99.90;;;;;;5009771;28;20052;-73
2022/04/14 02:27:05;;;;;;;27.50;14.48;;;10.50;99.90;;;;;;4981299;28;20070;-72
2022/04/14 02:29:31;;;;;;;26.25;14.45;;;10.50;99.90;;;;;;4996907;28;20124;-73
2022/04/14 02:31:57;;;;;;;27.90;13.88;;;10.50;99.90;;;;;;4997006;28;20078;-73
2022/04/14 02:34:27;;;;;;;24.35;14.05;;;10.50;99.90;;;;;;4996278;28;20443;-74
2022/04/14 02:36:54;;;;;;;27.40;13.45;;;10.50;99.90;;;;;;5001689;28;20049;-73
2022/04/14 02:39:20;;;;;;;27.42;14.52;;;10.40;99.90;;;;;;5013278;28;20402;-72
2022/04/14 02:41:46;;;;;;;28.95;15.25;;;10.40;99.90;;;;;;4992862;28;20054;-72
2022/04/14 02:44:12;;;;;;;28.45;15.63;;;10.30;99.90;;;;;;4989163;28;20061;-73
2022/04/14 02:46:38;;;;;;;34.00;15.43;;;10.30;99.90;;;;;;4991401;28;20042;-73
2022/04/14 02:49:04;;;;;;;31.13;16.15;;;10.30;99.90;;;;;;5006060;28;20529;-73
2022/04/14 02:51:30;;;;;;;31.23;16.23;;;10.40;99.90;;;;;;5008468;28;20045;-73
2022/04/14 02:53:57;;;;;;;32.60;17.05;;;10.40;99.90;;;;;;4993878;28;20042;-74
2022/04/14 02:56:23;;;;;;;31.98;16.17;;;10.40;99.90;;;;;;5001638;28;20141;-73
2022/04/14 02:58:49;;;;;;;31.30;16.55;;;10.30;99.90;;;;;;4989388;28;20120;-73
2022/04/14 03:01:15;;;;;;;29.15;16.90;;;10.30;99.90;;;;;;4984582;28;20080;-72
2022/04/14 03:03:41;;;;;;;27.88;15.23;;;10.20;99.90;;;;;;5001216;28;20141;-72
2022/04/14 03:06:07;;;;;;;24.67;13.07;;;10.10;99.90;;;;;;4982530;28;20049;-72
2022/04/14 03:08:33;;;;;;;26.40;13.48;;;10.00;99.90;;;;;;4999871;28;20050;-73
2022/04/14 03:10:59;;;;;;;26.85;14.88;;;9.80;99.90;;;;;;4982075;28;20084;-73
2022/04/14 03:13:25;;;;;;;27.90;14.80;;;9.70;99.90;;;;;;4982474;28;20510;-74
2022/04/14 03:15:51;;;;;;;27.02;14.38;;;9.60;99.90;;;;;;5004012;28;20502;-73
2022/04/14 03:18:17;;;;;;;26.20;14.60;;;9.50;99.90;;;;;;5002913;28;20130;-73
2022/04/14 03:20:43;;;;;;;27.35;14.70;;;9.50;99.90;;;;;;4997764;28;20064;-73
2022/04/14 03:23:11;;;;;;;23.33;13.52;;;9.40;99.90;;;;;;4985630;28;20790;-73
2022/04/14 03:25:38;;;;;;;28.20;14.23;;;9.40;99.90;;;;;;5018708;28;20058;-74
2022/04/14 03:28:04;;;;;;;32.47;16.80;;;9.30;99.90;;;;;;4985211;28;20065;-73
2022/04/14 03:30:30;;;;;;;32.30;16.40;;;9.30;99.90;;;;;;4986584;28;20041;-73
2022/04/14 03:32:56;;;;;;;32.17;16.60;;;9.30;99.90;;;;;;4997666;28;20092;-74
2022/04/14 03:35:22;;;;;;;31.30;17.77;;;9.30;99.90;;;;;;5019812;28;20064;-73
2022/04/14 03:37:48;;;;;;;32.58;17.25;;;9.30;99.90;;;;;;5017406;28;20049;-74
2022/04/14 03:40:14;;;;;;;31.63;16.10;;;9.30;99.90;;;;;;5001496;28;20371;-73
2022/04/14 03:42:40;;;;;;;35.53;16.98;;;9.20;99.90;;;;;;4985432;28;20103;-74
2022/04/14 03:45:07;;;;;;;34.58;16.27;;;9.10;99.90;;;;;;4994473;28;20124;-73
2022/04/14 03:47:33;;;;;;;31.23;17.40;;;9.10;99.90;;;;;;4984345;28;20120;-71
2022/04/14 03:49:59;;;;;;;36.90;18.08;;;9.10;99.90;;;;;;4997545;28;20056;-71
2022/04/14 03:52:25;;;;;;;32.85;18.58;;;9.10;99.90;;;;;;4988685;28;20049;-70
2022/04/14 03:54:51;;;;;;;36.75;18.38;;;9.10;99.90;;;;;;5000017;28;20053;-70
2022/04/14 03:57:17;;;;;;;34.53;17.85;;;9.10;99.90;;;;;;4984362;28;20107;-70
2022/04/14 03:59:43;;;;;;;42.53;20.10;;;9.10;99.90;;;;;;5001623;28;20050;-71
2022/04/14 04:02:09;;;;;;;36.25;19.52;;;9.10;99.90;;;;;;4993504;28;20038;-71
2022/04/14 04:04:35;;;;;;;37.47;19.00;;;9.20;99.90;;;;;;4983564;28;20050;-70
2022/04/14 04:07:00;;;;;;;35.65;18.92;;;9.10;99.90;;;;;;5019438;28;20060;-71
2022/04/14 04:09:27;;;;;;;37.67;18.48;;;9.10;99.90;;;;;;4983322;28;20060;-72
2022/04/14 04:11:54;;;;;;;29.45;17.42;;;9.00;99.90;;;;;;5019484;28;20171;-70
2022/04/14 04:14:20;;;;;;;32.38;17.58;;;9.00;99.90;;;;;;4982687;28;20046;-71
2022/04/14 04:16:47;;;;;;;33.03;17.63;;;8.90;99.90;;;;;;5007902;28;20057;-71
2022/04/14 04:19:13;;;;;;;31.98;16.50;;;8.80;99.90;;;;;;4983732;28;20065;-71
2022/04/14 04:21:39;;;;;;;28.52;16.60;;;8.80;99.90;;;;;;5004770;28;20038;-71
2022/04/14 04:24:05;;;;;;;31.63;16.63;;;8.60;99.90;;;;;;5005895;28;20060;-71
2022/04/14 04:26:31;;;;;;;26.08;15.20;;;8.60;99.90;;;;;;4996109;28;20405;-72
2022/04/14 04:28:57;;;;;;;33.05;16.23;;;8.50;99.90;;;;;;4985432;28;20045;-73
2022/04/14 04:31:23;;;;;;;34.95;18.08;;;8.40;99.90;;;;;;4983037;28;20506;-73
2022/04/14 04:33:51;;;;;;;40.30;20.50;;;8.40;99.90;;;;;;4986094;28;20046;-73
2022/04/14 04:36:17;;;;;;;46.08;21.65;;;8.40;99.90;;;;;;4999525;28;20418;-73
2022/04/14 04:38:44;;;;;;;40.63;21.00;;;8.50;99.90;;;;;;4984405;28;20046;-74
2022/04/14 04:41:10;;;;;;;41.17;20.33;;;8.50;99.90;;;;;;4988501;28;20050;-73
2022/04/14 04:43:36;;;;;;;38.47;20.75;;;8.50;99.90;;;;;;4992941;28;20041;-74
2022/04/14 04:46:02;;;;;;;43.58;21.92;;;8.50;99.90;;;;;;5000332;28;20524;-74
2022/04/14 04:48:28;;;;;;;40.22;20.75;;;8.50;99.90;;;;;;5019305;28;20061;-74
2022/04/14 04:50:54;;;;;;;41.25;20.70;;;8.50;99.90;;;;;;5000332;28;20141;-74
2022/04/14 04:53:20;;;;;;;45.47;22.25;;;8.50;99.90;;;;;;4982491;28;20037;-73
2022/04/14 04:55:47;;;;;;;49.70;24.13;;;8.50;99.90;;;;;;4982646;28;20097;-74
2022/04/14 04:58:14;;;;;;;49.03;23.65;;;8.50;99.90;;;;;;4983475;28;20159;-75
2022/04/14 05:00:44;;;;;;;47.45;23.58;;;8.50;99.90;;;;;;4982141;28;20053;-74
2022/04/14 05:03:11;;;;;;;49.47;24.13;;;8.50;99.90;;;;;;4982701;28;20049;-73
2022/04/14 05:05:38;;;;;;;49.08;24.33;;;8.50;99.90;;;;;;4987873;28;20053;-73
2022/04/14 05:08:06;;;;;;;44.00;23.13;;;8.50;99.90;;;;;;4999178;28;20509;-73
2022/04/14 05:10:33;;;;;;;44.47;21.15;;;8.50;99.90;;;;;;4998995;28;20049;-73
2022/04/14 05:13:00;;;;;;;42.60;21.13;;;8.50;99.90;;;;;;4982662;28;20064;-73
2022/04/14 05:15:26;;;;;;;38.30;19.98;;;8.30;99.90;;;;;;4999303;28;20057;-73
2022/04/14 05:17:52;;;;;;;46.05;22.33;;;8.30;99.90;;;;;;5007007;28;20054;-73
2022/04/14 05:20:19;;;;;;;43.53;21.92;;;8.30;99.90;;;;;;4961073;28;20080;-74
2022/04/14 05:22:45;;;;;;;37.88;18.98;;;8.30;99.90;;;;;;5006710;28;20915;-73
2022/04/14 05:25:11;;;;;;;39.30;20.38;;;7.70;99.90;;;;;;5006537;28;20093;-73
2022/04/14 05:27:37;;;;;;;38.08;21.13;;;8.20;99.90;;;;;;4996330;28;20108;-73
2022/04/14 05:30:04;;;;;;;34.28;20.13;;;8.20;99.90;;;;;;4996272;28;20481;-74
2022/04/14 05:32:30;;;;;;;35.67;18.63;;;8.80;99.90;;;;;;5003833;28;20491;-73
2022/04/14 05:34:56;;;;;;;36.30;20.25;;;8.20;99.90;;;;;;5000536;28;20046;-73
2022/04/14 05:37:22;;;;;;;43.90;21.77;;;8.10;99.90;;;;;;4995913;28;20103;-73
2022/04/14 05:39:48;;;;;;;42.05;21.33;;;8.20;99.90;;;;;;4967265;28;20533;-73
2022/04/14 05:42:15;;;;;;;46.00;23.10;;;8.20;99.90;;;;;;4979618;28;20163;-73
2022/04/14 05:44:41;;;;;;;49.95;25.02;;;8.30;99.90;;;;;;4995812;28;20567;-74
2022/04/14 05:47:07;;;;;;;59.63;26.77;;;8.40;99.90;;;;;;4998173;28;20037;-73
2022/04/14 05:49:34;;;;;;;57.45;28.25;;;8.50;99.90;;;;;;5007149;28;20073;-73
2022/04/14 05:52:00;;;;;;;61.28;29.27;;;8.70;99.90;;;;;;4996963;28;20050;-74
2022/04/14 05:54:26;;;;;;;59.10;29.55;;;8.80;99.90;;;;;;4981312;28;20064;-74
2022/04/14 05:56:53;;;;;;;60.25;29.45;;;9.00;99.90;;;;;;5005339;28;20487;-74
2022/04/14 05:59:19;;;;;;;54.33;28.50;;;9.10;99.90;;;;;;5000710;28;20081;-74
2022/04/14 06:01:46;;;;;;;55.85;28.50;;;9.30;99.90;;;;;;4962272;28;20104;-74
2022/04/14 06:04:12;;;;;;;58.88;30.40;;;9.40;99.90;;;;;;4999433;28;20041;-73
2022/04/14 06:06:39;;;;;;;59.15;30.63;;;9.50;99.90;;;;;;4985046;28;20546;-74
2022/04/14 06:09:05;;;;;;;62.10;31.70;;;9.70;99.90;;;;;;4981791;28;20477;-73
2022/04/14 06:11:32;;;;;;;62.25;32.80;;;9.80;99.90;;;;;;4978385;28;20133;-73
2022/04/14 06:13:58;;;;;;;61.25;32.17;;;9.90;99.90;;;;;;5001694;28;20057;-75
2022/04/14 06:16:24;;;;;;;61.58;32.58;;;10.10;99.90;;;;;;5006136;28;20049;-73
2022/04/14 06:18:50;;;;;;;67.93;34.08;;;10.20;99.90;;;;;;4993196;28;20057;-75
2022/04/14 06:21:16;;;;;;;60.42;30.98;;;10.30;99.90;;;;;;4984363;28;20383;-73
2022/04/14 06:23:42;;;;;;;62.63;32.28;;;10.30;99.90;;;;;;4987761;28;20045;-74
2022/04/14 06:26:08;;;;;;;62.47;32.22;;;10.50;99.90;;;;;;4999592;28;20173;-75
2022/04/14 06:28:34;;;;;;;56.55;29.17;;;10.50;99.90;;;;;;5002640;28;20065;-74
2022/04/14 06:31:01;;;;;;;57.15;30.95;;;10.60;99.90;;;;;;4979711;28;20434;-74
2022/04/14 06:33:30;;;;;;;60.38;31.83;;;10.70;99.90;;;;;;4964427;28;20510;-74
2022/04/14 06:35:59;;;;;;;58.70;30.80;;;10.80;99.90;;;;;;4979586;28;20061;-73
2022/04/14 06:38:27;;;;;;;54.65;29.90;;;10.90;99.90;;;;;;4994365;28;20109;-72
2022/04/14 06:40:54;;;;;;;55.08;28.20;;;11.00;99.90;;;;;;5004970;28;20100;-74
2022/04/14 06:43:20;;;;;;;57.70;31.52;;;11.10;99.90;;;;;;5007873;28;20033;-74
2022/04/14 06:45:47;;;;;;;53.13;30.30;;;11.20;99.90;;;;;;4996390;28;20064;-73
2022/04/14 06:48:14;;;;;;;53.00;30.55;;;11.30;99.90;;;;;;4979881;28;20046;-73
2022/04/14 06:50:40;;;;;;;51.67;29.35;;;11.60;99.90;;;;;;4994633;28;20379;-73
2022/04/14 06:53:06;;;;;;;52.83;29.23;;;11.40;99.90;;;;;;4994907;28;20050;-72
2022/04/14 06:55:32;;;;;;;49.30;27.58;;;11.50;99.90;;;;;;4993503;28;20052;-72
2022/04/14 06:57:58;;;;;;;49.90;29.42;;;11.70;99.90;;;;;;4992634;28;20058;-73
2022/04/14 07:00:25;;;;;;;49.50;27.50;;;11.70;99.90;;;;;;4998284;28;20120;-73
2022/04/14 07:02:52;;;;;;;46.90;26.75;;;11.90;99.90;;;;;;4981432;28;20054;-72
2022/04/14 07:05:19;;;;;;;47.70;26.30;;;12.00;99.90;;;;;;4980745;28;20061;-72
2022/04/14 07:07:45;;;;;;;48.20;27.70;;;12.10;99.90;;;;;;5006238;28;20558;-72
2022/04/14 07:10:13;;;;;;;43.05;24.23;;;12.20;99.90;;;;;;4997391;28;20137;-72
2022/04/14 07:12:40;;;;;;;42.42;26.40;;;12.40;99.90;;;;;;4992770;28;20085;-72
2022/04/14 07:15:07;;;;;;;46.20;26.15;;;12.50;99.90;;;;;;4995510;28;20141;-71
2022/04/14 07:17:34;;;;;;;43.33;24.83;;;12.70;99.90;;;;;;4996976;28;20121;-70
2022/04/14 07:20:03;;;;;;;42.03;24.83;;;12.70;99.90;;;;;;4996968;28;20054;-71
2022/04/14 07:22:31;;;;;;;42.70;24.55;;;12.80;99.90;;;;;;4978873;28;20061;-71
2022/04/14 07:24:59;;;;;;;38.80;23.30;;;13.00;99.90;;;;;;4979404;28;20042;-71
2022/04/14 07:27:26;;;;;;;38.75;22.60;;;13.10;99.90;;;;;;4979936;28;20168;-70
2022/04/14 07:29:52;;;;;;;38.58;22.45;;;13.20;99.90;;;;;;4995907;28;20080;-72
2022/04/14 07:32:17;;;;;;;39.15;22.90;;;13.20;99.90;;;;;;4978940;28;20465;-72
2022/04/14 07:34:43;;;;;;;37.65;22.77;;;13.30;99.90;;;;;;4995013;28;20096;-71
2022/04/14 07:37:10;;;;;;;37.38;22.70;;;13.50;99.90;;;;;;4977335;28;20081;-72
2022/04/14 07:39:36;;;;;;;39.22;22.10;;;13.50;99.90;;;;;;4995154;28;20060;-72
2022/04/14 07:42:02;;;;;;;37.10;22.52;;;13.70;99.90;;;;;;4995320;28;20046;-72
2022/04/14 07:44:28;;;;;;;34.22;20.67;;;13.70;99.90;;;;;;4994753;28;20042;-72
2022/04/14 07:46:53;;;;;;;39.33;22.58;;;13.80;99.90;;;;;;4996151;28;20068;-71
2022/04/14 07:49:19;;;;;;;38.10;21.42;;;13.80;99.90;;;;;;4980871;28;20053;-71
2022/04/14 07:51:45;;;;;;;36.22;21.08;;;13.80;99.90;;;;;;5002028;28;20046;-71
2022/04/14 07:54:12;;;;;;;31.55;18.83;;;13.90;99.90;;;;;;4999309;28;20065;-72
2022/04/14 07:56:38;;;;;;;34.50;19.42;;;14.00;99.90;;;;;;4985190;28;20114;-76
2022/04/14 07:59:04;;;;;;;34.63;19.67;;;14.10;99.90;;;;;;4980831;28;20449;-76
2022/04/14 08:01:30;;;;;;;29.40;17.00;;;14.20;99.90;;;;;;4996503;28;20560;-75
2022/04/14 08:03:56;;;;;;;29.50;17.80;;;14.40;99.90;;;;;;4978666;28;20046;-73
2022/04/14 08:06:25;;;;;;;30.88;17.90;;;14.50;99.90;;;;;;4988202;28;20386;-72
2022/04/14 08:08:51;;;;;;;31.30;18.90;;;14.40;99.90;;;;;;4977492;28;20093;-71
2022/04/14 08:11:16;;;;;;;29.25;17.83;;;14.50;99.90;;;;;;4987510;28;20077;-72
2022/04/14 08:13:42;;;;;;;28.15;17.65;;;14.60;99.90;;;;;;4996154;28;20046;-71
2022/04/14 08:16:12;;;;;;;20.67;14.75;;;14.70;99.90;;;;;;4995798;28;20578;-71
2022/04/14 08:18:39;;;;;;;30.73;18.15;;;14.90;99.90;;;;;;4994875;28;20049;-71
2022/04/14 08:21:06;;;;;;;25.92;17.35;;;14.90;99.90;;;;;;4993982;28;20124;-71
2022/04/14 08:23:34;;;;;;;32.50;16.60;;;15.10;99.90;;;;;;4995407;28;20050;-72
2022/04/14 08:26:01;;;;;;;25.10;16.48;;;15.10;99.90;;;;;;4975926;28;20046;-72
2022/04/14 08:28:27;;;;;;;23.92;16.33;;;15.00;99.90;;;;;;4994677;28;20050;-71
2022/04/14 08:30:54;;;;;;;24.35;16.23;;;15.00;99.90;;;;;;4994632;28;20072;-72
2022/04/14 08:33:23;;;;;;;25.95;17.23;;;15.10;99.90;;;;;;4995366;28;20100;-73
2022/04/14 08:35:51;;;;;;;26.63;17.20;;;15.20;99.90;;;;;;4962391;28;20127;-71
2022/04/14 08:38:17;;;;;;;24.35;16.63;;;15.30;99.90;;;;;;4995536;28;20557;-71
2022/04/14 08:40:47;;;;;;;25.90;16.80;;;15.30;99.90;;;;;;4986193;28;20042;-72
2022/04/14 08:43:17;;;;;;;21.30;14.77;;;15.50;99.90;;;;;;4979291;28;20057;-72
2022/04/14 08:45:50;;;;;;;23.50;16.50;;;15.40;99.90;;;;;;4979056;28;20049;-74
2022/04/14 08:48:20;;;;;;;26.17;17.27;;;15.30;99.90;;;;;;4979504;28;20112;-72
2022/04/14 08:50:50;;;;;;;24.77;17.38;;;15.30;99.90;;;;;;4994372;28;20058;-72
2022/04/14 08:53:18;;;;;;;26.58;17.63;;;15.30;99.90;;;;;;5000504;28;20430;-76
2022/04/14 08:55:45;;;;;;;24.15;16.95;;;15.60;99.90;;;;;;4994442;28;20053;-75
2022/04/14 08:58:17;;;;;;;23.98;16.60;;;16.00;99.90;;;;;;4968231;28;20064;-73
2022/04/14 09:00:43;;;;;;;26.02;15.90;;;15.70;99.90;;;;;;4972991;28;20062;-74
2022/04/14 09:03:09;;;;;;;23.23;15.50;;;15.90;99.90;;;;;;4959195;28;20053;-75
2022/04/14 09:05:37;;;;;;;21.42;13.98;;;16.00;99.90;;;;;;4992991;28;20128;-76
2022/04/14 09:08:03;;;;;;;24.67;16.35;;;16.10;99.90;;;;;;4944074;28;20064;-74
2022/04/14 09:10:29;;;;;;;22.63;15.77;;;16.20;99.90;;;;;;4993708;28;20054;-75
2022/04/14 09:12:55;;;;;;;23.50;14.90;;;16.20;99.90;;;;;;4985492;28;20499;-77
2022/04/14 09:15:21;;;;;;;25.05;16.60;;;16.20;99.90;;;;;;4990965;28;20058;-76
2022/04/14 09:17:47;;;;;;;23.13;16.85;;;16.30;99.90;;;;;;4974161;28;20514;-76
2022/04/14 09:20:37;;;;;;;25.02;16.38;;;16.30;99.90;;;;;;4991510;28;20069;-75
2022/04/14 09:23:23;;;;;;;24.63;16.05;;;16.30;99.90;;;;;;4974206;28;20133;-76
2022/04/14 09:25:52;;;;;;;24.48;16.20;;;16.40;99.90;;;;;;4957938;28;20046;-75
2022/04/14 09:28:20;;;;;;;26.75;17.13;;;16.60;99.90;;;;;;4991696;28;20058;-75
2022/04/14 09:31:07;;;;;;;29.52;17.25;;;16.70;99.90;;;;;;4958879;28;20121;-79
2022/04/14 09:33:44;;;;;;;23.27;16.73;;;16.80;99.90;;;;;;4976521;28;20054;-78
2022/04/14 09:36:23;;;;;;;25.25;15.85;;;16.80;99.90;;;;;;4974366;28;20042;-75
2022/04/14 09:39:06;;;;;;;23.00;16.25;;;16.90;99.90;;;;;;4974522;28;20472;-76
2022/04/14 09:41:40;;;;;;;26.80;17.13;;;17.10;99.90;;;;;;4955536;28;20038;-75
2022/04/14 09:44:14;;;;;;;24.92;15.88;;;17.30;99.90;;;;;;4974917;28;20090;-77
2022/04/14 09:46:48;;;;;;;22.77;14.98;;;17.30;99.90;;;;;;4975408;28;20046;-76
2022/04/14 09:49:17;;;;;;;22.52;14.50;;;17.10;99.90;;;;;;4974451;28;20042;-76
2022/04/14 09:51:48;;;;;;;17.58;11.98;;;17.20;99.90;;;;;;4973442;28;20454;-75
2022/04/14 09:54:17;;;;;;;20.77;14.10;;;17.40;99.90;;;;;;4970609;28;20053;-75
2022/04/14 09:56:54;;;;;;;19.63;13.77;;;17.30;99.90;;;;;;4991656;28;20038;-76
2022/04/14 09:59:25;;;;;;;16.98;11.73;;;17.20;99.90;;;;;;4992994;28;20045;-75
2022/04/14 10:02:18;;;;;;;18.10;12.15;;;17.10;99.90;;;;;;4993096;28;20052;-77
2022/04/14 10:04:46;;;;;;;17.05;12.25;;;16.80;99.90;;;;;;4989499;28;20410;-71
2022/04/14 10:07:17;;;;;;;18.30;13.15;;;16.80;99.90;;;;;;4992919;28;20046;-71
2022/04/14 10:09:53;;;;;;;23.27;13.27;;;16.90;99.90;;;;;;4962160;28;20498;-71
2022/04/14 10:12:25;;;;;;;17.17;11.93;;;17.40;99.90;;;;;;4991624;28;20042;-72
2022/04/14 10:15:04;;;;;;;17.38;10.55;;;17.60;99.90;;;;;;4992319;28;20049;-73
2022/04/14 10:17:33;;;;;;;14.52;10.55;;;17.40;99.90;;;;;;4991056;28;20041;-72
2022/04/14 10:20:00;;;;;;;14.82;9.02;;;17.60;99.90;;;;;;4984876;28;20060;-71
2022/04/14 10:22:26;;;;;;;13.98;9.48;;;17.70;99.90;;;;;;4977904;28;20045;-72
2022/04/14 10:24:53;;;;;;;12.45;9.18;;;18.00;99.90;;;;;;4976425;28;20060;-72
2022/04/14 10:27:21;;;;;;;12.35;9.15;;;17.80;99.90;;;;;;4995621;28;20053;-71
2022/04/14 10:29:49;;;;;;;13.70;9.63;;;18.10;99.90;;;;;;4996792;28;20048;-70
2022/04/14 10:32:16;;;;;;;12.13;8.60;;;18.20;99.90;;;;;;4996669;28;20065;-70
2022/04/14 10:34:45;;;;;;;10.73;7.72;;;18.00;99.90;;;;;;4994313;28;20598;-71
2022/04/14 10:37:18;;;;;;;10.68;7.07;;;18.00;99.90;;;;;;4996567;28;20057;-71
2022/04/14 10:39:48;;;;;;;9.52;6.75;;;18.00;99.90;;;;;;4981290;28;20041;-71
2022/04/14 10:42:21;;;;;;;13.40;8.70;;;18.20;99.90;;;;;;4980257;28;20077;-70
2022/04/14 10:44:49;;;;;;;11.82;8.60;;;18.10;99.90;;;;;;4979686;28;20096;-71
2022/04/14 10:47:34;;;;;;;13.40;8.75;;;18.00;99.90;;;;;;4996422;28;20398;-71
2022/04/14 10:50:03;;;;;;;12.32;7.90;;;17.80;99.90;;;;;;4996030;28;20573;-71
2022/04/14 10:52:29;;;;;;;12.55;8.82;;;17.60;99.90;;;;;;4977083;28;20046;-71
2022/04/14 10:55:00;;;;;;;13.60;8.60;;;17.60;99.90;;;;;;4999325;28;20528;-72
2022/04/14 10:57:38;;;;;;;15.32;8.50;;;17.80;99.90;;;;;;5008443;28;20054;-71
2022/04/14 11:00:19;;;;;;;12.18;7.53;;;17.90;99.90;;;;;;4977791;28;20044;-71
2022/04/14 11:03:06;;;;;;;9.13;6.80;;;18.00;99.90;;;;;;5010259;28;20049;-70
2022/04/14 11:05:43;;;;;;;8.80;6.55;;;18.40;99.90;;;;;;5007743;28;20049;-71
2022/04/14 11:08:26;;;;;;;13.85;7.93;;;18.80;99.90;;;;;;5012216;28;20092;-72
2022/04/14 11:11:14;;;;;;;6.35;4.97;;;19.00;99.90;;;;;;5012377;28;20511;-71
2022/04/14 11:13:55;;;;;;;7.85;4.70;;;18.90;98.10;;;;;;5001329;28;20038;-71
2022/04/14 11:16:41;;;;;;;7.22;5.30;;;19.10;93.40;;;;;;4992188;28;20046;-71
2022/04/14 11:19:19;;;;;;;9.30;5.93;;;19.30;99.90;;;;;;5003110;28;20078;-70
2022/04/14 11:22:04;;;;;;;9.70;6.50;;;19.40;92.20;;;;;;4992087;28;20046;-70
2022/04/14 11:24:36;;;;;;;11.35;8.05;;;19.40;99.90;;;;;;5007994;28;20117;-70
2022/04/14 11:27:26;;;;;;;8.98;7.40;;;19.00;99.90;;;;;;5007404;28;20121;-70
2022/04/14 11:29:57;;;;;;;9.40;6.97;;;18.50;99.90;;;;;;4994572;28;20046;-70
2022/04/14 11:32:41;;;;;;;12.95;7.97;;;18.30;99.90;;;;;;4995924;28;20138;-70
2022/04/14 11:35:09;;;;;;;13.63;8.23;;;18.30;99.90;;;;;;5008139;28;20050;-70
2022/04/14 11:37:45;;;;;;;11.65;7.78;;;19.00;99.90;;;;;;5003950;28;20054;-70
2022/04/14 11:40:15;;;;;;;10.00;7.18;;;18.80;99.90;;;;;;5013089;28;20120;-70
2022/04/14 11:42:42;;;;;;;9.68;6.97;;;18.80;99.90;;;;;;4995839;28;20632;-70
2022/04/14 11:45:08;;;;;;;14.20;10.10;;;18.70;99.90;;;;;;5000260;28;20038;-70
2022/04/14 11:47:34;;;;;;;14.60;10.65;;;18.20;99.90;;;;;;5013075;28;20054;-71
2022/04/14 11:50:00;;;;;;;16.65;10.52;;;18.20;99.90;;;;;;4999986;28;20121;-70
2022/04/14 11:52:26;;;;;;;13.80;10.32;;;18.40;99.90;;;;;;5009475;28;20447;-70
2022/04/14 11:54:53;;;;;;;13.00;9.48;;;18.40;99.90;;;;;;5007071;28;20057;-71
2022/04/14 11:57:25;;;;;;;16.50;9.45;;;18.30;99.90;;;;;;4999087;28;20049;-70
2022/04/14 11:59:51;;;;;;;;;;;18.30;99.90;;;;;;4995886;28;20042;-71
2022/04/14 12:02:21;;;;;;;12.00;7.72;;;18.40;99.90;;;;;;4998503;28;20374;-71
2022/04/14 12:04:46;;;;;;;10.55;7.25;;;18.50;99.90;;;;;;4994607;28;20050;-70
2022/04/14 12:07:14;;;;;;;8.15;5.30;;;18.30;99.90;;;;;;4994577;28;20049;-71
2022/04/14 12:09:41;;;;;;;9.93;5.03;;;18.10;99.90;;;;;;4977235;28;20049;-71
2022/04/14 12:12:14;;;;;;;8.60;5.50;;;18.10;99.90;;;;;;4994182;28;20046;-71
2022/04/14 12:14:52;;;;;;;7.25;5.00;;;18.50;99.90;;;;;;4994533;28;20052;-71
2022/04/14 12:17:23;;;;;;;9.68;5.57;;;18.80;99.90;;;;;;4976555;28;20507;-72
2022/04/14 12:19:54;;;;;;;;;;;18.90;99.90;;;;;;4994367;28;20041;-71
2022/04/14 12:22:21;;;;;;;7.43;4.67;;;19.00;99.90;;;;;;4996107;28;19928;-71
2022/04/14 12:24:51;;;;;;;8.45;4.63;;;19.00;99.90;;;;;;4995450;28;20054;-70
2022/04/14 12:27:22;;;;;;;8.52;4.47;;;19.10;99.90;;;;;;4994653;28;20057;-71
2022/04/14 12:29:56;;;;;;;9.15;5.30;;;19.30;99.90;;;;;;4993066;28;20045;-71
2022/04/14 12:32:26;;;;;;;7.65;5.43;;;19.10;99.90;;;;;;4994260;28;20115;-71
2022/04/14 12:34:53;;;;;;;9.48;5.75;;;19.20;99.90;;;;;;4978105;28;20045;-72
2022/04/14 12:37:19;;;;;;;9.88;5.63;;;19.30;99.90;;;;;;4993091;28;20064;-71